Time;durP1;ratioP1;P1;durP2;ratioP2;P2;SDS_P1;SDS_P2;PMS_P1;PMS_P2;Temp;Humidity;BMP_temperature;BMP_pressure;BME280_temperature;BME280_humidity;BME280_pressure;Samples;Min_cycle;Max_cycle;Signal;HPM_P1;HPM_P2
2023/04/17 00:00:19;;;;;;;1.23;0.85;;;12.70;99.90;;;;;;5018331;28;20791;-82
2023/04/17 00:02:46;;;;;;;1.85;1.00;;;12.70;99.90;;;;;;5021256;28;20549;-82
2023/04/17 00:05:15;;;;;;;0.95;0.70;;;12.70;99.90;;;;;;5004763;28;20100;-82
2023/04/17 00:07:42;;;;;;;1.85;1.05;;;12.70;99.90;;;;;;5004189;28;20049;-82
2023/04/17 00:10:10;;;;;;;1.10;0.60;;;12.70;99.90;;;;;;4984743;28;20128;-81
2023/04/17 00:12:37;;;;;;;1.10;0.90;;;12.70;99.90;;;;;;5020029;28;20606;-81
2023/04/17 00:15:05;;;;;;;0.60;0.50;;;12.70;99.90;;;;;;5004327;28;20050;-82
2023/04/17 00:17:32;;;;;;;1.17;0.60;;;12.70;99.90;;;;;;5019794;28;20118;-82
2023/04/17 00:19:59;;;;;;;0.93;0.65;;;12.70;99.90;;;;;;5004506;28;20492;-82
2023/04/17 00:22:26;;;;;;;1.05;0.70;;;12.70;99.90;;;;;;5004263;28;20127;-82
2023/04/17 00:24:53;;;;;;;1.08;0.50;;;12.70;99.90;;;;;;5003207;28;20135;-82
2023/04/17 00:27:19;;;;;;;2.08;1.00;;;12.70;99.90;;;;;;5001743;28;20060;-81
2023/04/17 00:29:46;;;;;;;1.15;0.65;;;12.60;99.90;;;;;;4979505;28;20643;-83
2023/04/17 00:32:13;;;;;;;0.63;0.50;;;12.60;99.90;;;;;;5004695;28;20069;-83
2023/04/17 00:34:40;;;;;;;1.05;0.68;;;12.60;99.90;;;;;;5019239;28;20110;-83
2023/04/17 00:37:07;;;;;;;0.88;0.70;;;12.70;99.90;;;;;;5003928;28;20041;-83
2023/04/17 00:39:34;;;;;;;0.50;0.50;;;12.60;99.90;;;;;;5003709;28;20140;-83
2023/04/17 00:42:01;;;;;;;1.15;0.65;;;12.70;99.90;;;;;;5004499;28;20053;-83
2023/04/17 00:44:28;;;;;;;2.60;0.82;;;12.70;99.90;;;;;;5003669;28;20091;-83
2023/04/17 00:46:55;;;;;;;1.67;1.10;;;12.70;99.90;;;;;;5003105;28;20112;-83
2023/04/17 00:49:22;;;;;;;0.65;0.60;;;12.60;99.90;;;;;;5004373;28;20046;-83
2023/04/17 00:51:49;;;;;;;0.73;0.57;;;12.60;99.90;;;;;;5004098;28;20069;-83
2023/04/17 00:54:17;;;;;;;1.30;0.93;;;12.60;99.90;;;;;;5003826;28;20144;-84
2023/04/17 00:56:44;;;;;;;2.03;1.02;;;12.60;99.90;;;;;;4984391;28;20456;-83
2023/04/17 00:59:12;;;;;;;0.95;0.77;;;12.60;99.90;;;;;;5004046;28;20064;-84
2023/04/17 01:01:39;;;;;;;1.02;0.60;;;12.60;99.90;;;;;;5002127;28;20430;-84
2023/04/17 01:04:08;;;;;;;1.50;0.90;;;12.60;99.90;;;;;;5004192;28;20060;-84
2023/04/17 01:06:35;;;;;;;1.63;0.90;;;12.60;99.90;;;;;;5003314;28;20598;-83
2023/04/17 01:09:03;;;;;;;0.70;0.43;;;12.60;99.90;;;;;;5003468;28;20076;-84
2023/04/17 01:11:30;;;;;;;1.55;1.08;;;12.60;99.90;;;;;;5003914;28;20124;-83
2023/04/17 01:13:56;;;;;;;0.90;0.68;;;12.60;99.90;;;;;;5002463;28;20080;-83
2023/04/17 01:16:23;;;;;;;1.60;1.00;;;12.60;99.90;;;;;;4982743;28;20514;-83
2023/04/17 01:18:50;;;;;;;1.95;1.35;;;12.60;99.90;;;;;;4995217;28;20080;-84
2023/04/17 01:21:17;;;;;;;2.08;1.40;;;12.60;99.90;;;;;;5003165;28;20156;-84
2023/04/17 01:23:51;;;;;;;2.15;1.60;;;12.60;99.90;;;;;;5003460;28;20080;-83
2023/04/17 01:26:22;;;;;;;2.33;1.85;;;12.50;99.90;;;;;;5000803;28;20041;-83
2023/04/17 01:28:50;;;;;;;2.78;2.17;;;12.50;99.90;;;;;;4985250;28;20351;-84
2023/04/17 01:31:17;;;;;;;2.50;1.70;;;12.50;99.90;;;;;;4996079;28;20065;-82
2023/04/17 01:33:44;;;;;;;3.58;2.65;;;12.50;99.90;;;;;;5005945;28;20059;-82
2023/04/17 01:36:11;;;;;;;2.90;2.35;;;12.40;99.90;;;;;;5006597;28;20061;-84
2023/04/17 01:38:38;;;;;;;3.03;2.55;;;12.40;99.90;;;;;;5021687;28;20071;-84
2023/04/17 01:41:11;;;;;;;3.20;2.72;;;12.40;99.90;;;;;;5023526;28;20046;-84
2023/04/17 01:43:39;;;;;;;3.13;2.75;;;12.30;99.90;;;;;;5007780;28;20491;-83
2023/04/17 01:46:06;;;;;;;3.25;2.83;;;12.30;99.90;;;;;;5005972;28;20147;-84
2023/04/17 01:48:33;;;;;;;3.25;2.75;;;12.30;99.90;;;;;;5006882;28;20429;-83
2023/04/17 01:51:00;;;;;;;3.45;2.83;;;12.30;99.90;;;;;;5023302;28;20136;-83
2023/04/17 01:53:29;;;;;;;3.45;2.60;;;12.30;99.90;;;;;;5020877;28;20599;-83
2023/04/17 01:55:56;;;;;;;4.03;2.67;;;12.30;99.90;;;;;;5021688;28;20053;-81
2023/04/17 01:58:23;;;;;;;3.70;2.95;;;12.30;99.90;;;;;;4987038;28;20061;-83
2023/04/17 02:00:50;;;;;;;3.40;2.30;;;12.30;99.90;;;;;;5005414;28;20046;-83
2023/04/17 02:03:17;;;;;;;2.90;2.55;;;12.30;99.90;;;;;;5022634;28;20142;-82
2023/04/17 02:05:46;;;;;;;3.20;2.55;;;12.30;99.90;;;;;;4987198;28;20050;-82
2023/04/17 02:08:16;;;;;;;2.42;2.05;;;12.30;99.90;;;;;;5004597;28;20046;-83
2023/04/17 02:10:43;;;;;;;3.53;2.70;;;12.30;99.90;;;;;;5021957;28;20404;-83
2023/04/17 02:13:10;;;;;;;3.35;2.72;;;12.30;99.90;;;;;;5023220;28;20414;-83
2023/04/17 02:15:36;;;;;;;3.30;2.67;;;12.20;99.90;;;;;;5004975;28;20674;-83
2023/04/17 02:18:06;;;;;;;3.33;2.47;;;12.20;99.90;;;;;;5006301;28;20069;-84
2023/04/17 02:20:33;;;;;;;3.15;2.72;;;12.20;99.90;;;;;;5022531;28;20053;-84
2023/04/17 02:23:01;;;;;;;3.90;3.08;;;12.20;99.90;;;;;;5005138;28;20510;-84
2023/04/17 02:25:28;;;;;;;3.97;3.20;;;12.20;99.90;;;;;;5005481;28;20145;-83
2023/04/17 02:27:55;;;;;;;4.72;3.35;;;12.10;99.90;;;;;;5005670;28;20045;-83
2023/04/17 02:30:22;;;;;;;3.67;2.83;;;12.10;99.90;;;;;;5005632;28;20403;-82
2023/04/17 02:32:52;;;;;;;3.47;2.97;;;12.10;99.90;;;;;;5005060;28;20103;-82
2023/04/17 02:35:20;;;;;;;3.33;2.80;;;12.20;99.90;;;;;;5006264;28;20136;-83
2023/04/17 02:37:47;;;;;;;3.70;3.28;;;12.10;99.90;;;;;;5019972;28;20121;-82
2023/04/17 02:40:14;;;;;;;5.15;3.85;;;12.00;99.90;;;;;;5004530;28;20109;-82
2023/04/17 02:42:41;;;;;;;4.15;3.42;;;12.00;99.90;;;;;;5006229;28;20046;-82
2023/04/17 02:45:09;;;;;;;4.10;3.25;;;12.00;99.90;;;;;;5005722;28;20073;-82
2023/04/17 02:47:36;;;;;;;3.50;3.00;;;11.90;99.90;;;;;;5005610;28;20046;-83
2023/04/17 02:50:03;;;;;;;3.90;2.80;;;12.00;99.90;;;;;;5006082;28;20064;-83
2023/04/17 02:52:31;;;;;;;3.15;2.25;;;11.90;99.90;;;;;;5005083;28;20045;-83
2023/04/17 02:54:58;;;;;;;3.40;3.10;;;11.90;99.90;;;;;;5004705;28;20144;-82
2023/04/17 02:57:25;;;;;;;3.72;2.60;;;12.00;99.90;;;;;;5020898;28;20654;-83
2023/04/17 02:59:52;;;;;;;3.95;2.80;;;11.90;99.90;;;;;;5021774;28;20053;-82
2023/04/17 03:02:21;;;;;;;3.95;2.95;;;11.90;99.90;;;;;;5005429;28;20489;-82
2023/04/17 03:04:49;;;;;;;3.38;2.97;;;11.90;99.90;;;;;;5005374;28;20094;-83
2023/04/17 03:07:22;;;;;;;4.50;3.15;;;11.80;99.90;;;;;;5020930;28;20045;-81
2023/04/17 03:09:49;;;;;;;3.40;2.75;;;11.80;99.90;;;;;;5004664;28;20109;-83
2023/04/17 03:12:16;;;;;;;3.72;2.95;;;11.80;99.90;;;;;;5005069;28;20227;-81
2023/04/17 03:14:43;;;;;;;4.28;3.35;;;11.80;99.90;;;;;;5005149;28;20053;-83
2023/04/17 03:17:10;;;;;;;4.25;3.53;;;11.70;99.90;;;;;;5021380;28;20088;-82
2023/04/17 03:19:37;;;;;;;3.92;3.28;;;11.70;99.90;;;;;;5020467;28;20271;-82
2023/04/17 03:22:04;;;;;;;4.60;4.00;;;11.70;99.90;;;;;;5003933;28;20608;-83
2023/04/17 03:24:31;;;;;;;4.18;3.78;;;11.70;99.90;;;;;;5004245;28;20080;-83
2023/04/17 03:26:58;;;;;;;4.13;3.60;;;11.60;99.90;;;;;;5006015;28;20076;-82
2023/04/17 03:29:25;;;;;;;5.07;4.57;;;11.70;99.90;;;;;;5006207;28;20049;-82
2023/04/17 03:31:52;;;;;;;4.70;4.07;;;11.60;99.90;;;;;;5021711;28;20603;-82
2023/04/17 03:34:20;;;;;;;4.07;3.45;;;11.70;99.90;;;;;;5005801;28;20603;-82
2023/04/17 03:36:47;;;;;;;4.90;3.83;;;11.70;99.90;;;;;;5004859;28;20046;-82
2023/04/17 03:39:14;;;;;;;3.60;3.28;;;11.60;99.90;;;;;;5005026;28;20057;-82
2023/04/17 03:41:41;;;;;;;4.30;3.80;;;11.60;99.90;;;;;;5003156;28;20803;-82
2023/04/17 03:44:08;;;;;;;4.55;3.75;;;11.60;99.90;;;;;;5005870;28;20134;-82
2023/04/17 03:46:37;;;;;;;4.80;3.85;;;11.50;99.90;;;;;;5005254;28;20056;-82
2023/04/17 03:49:04;;;;;;;5.32;3.50;;;11.50;99.90;;;;;;5005538;28;20298;-83
2023/04/17 03:51:31;;;;;;;4.13;3.20;;;11.50;99.90;;;;;;5021760;28;20080;-82
2023/04/17 03:53:57;;;;;;;4.05;3.50;;;11.50;99.90;;;;;;5005706;28;20092;-82
2023/04/17 03:56:24;;;;;;;3.50;3.15;;;11.50;99.90;;;;;;5004975;28;20148;-82
2023/04/17 03:58:51;;;;;;;3.97;3.53;;;11.50;99.90;;;;;;5004500;28;20061;-83
2023/04/17 04:01:18;;;;;;;4.22;3.72;;;11.50;99.90;;;;;;5021325;28;20137;-84
2023/04/17 04:03:45;;;;;;;4.28;3.88;;;11.40;99.90;;;;;;5004647;28;20053;-83
2023/04/17 04:06:12;;;;;;;4.03;3.35;;;11.40;99.90;;;;;;5004748;28;20049;-82
2023/04/17 04:08:39;;;;;;;4.93;3.78;;;11.40;99.90;;;;;;5003892;28;20711;-82
2023/04/17 04:11:06;;;;;;;4.32;3.70;;;11.40;99.90;;;;;;5001726;28;20054;-82
2023/04/17 04:13:33;;;;;;;4.75;4.25;;;11.40;99.90;;;;;;5010765;28;20884;-82
2023/04/17 04:15:59;;;;;;;4.75;4.25;;;11.40;99.90;;;;;;5020476;28;20050;-82
2023/04/17 04:18:27;;;;;;;4.90;3.90;;;11.40;99.90;;;;;;4985430;28;20046;-81
2023/04/17 04:20:54;;;;;;;4.60;3.55;;;11.40;99.90;;;;;;5019124;28;20144;-82
2023/04/17 04:23:20;;;;;;;4.20;3.47;;;11.40;99.90;;;;;;5002924;28;20038;-82
2023/04/17 04:25:48;;;;;;;3.63;3.20;;;11.40;99.90;;;;;;5007263;28;20140;-82
2023/04/17 04:28:16;;;;;;;4.32;3.92;;;11.30;99.90;;;;;;5011099;28;20045;-84
2023/04/17 04:30:49;;;;;;;3.35;3.05;;;11.30;99.90;;;;;;5025132;28;20107;-81
2023/04/17 04:33:19;;;;;;;;;;;11.30;99.90;;;;;;5009727;28;20462;-83
2023/04/17 04:35:50;;;;;;;5.15;3.78;;;11.30;99.90;;;;;;5022529;28;20019;-82
2023/04/17 04:38:17;;;;;;;3.15;2.85;;;11.30;99.90;;;;;;5007930;28;20122;-82
2023/04/17 04:40:50;;;;;;;4.03;3.63;;;11.20;99.90;;;;;;5039701;28;20053;-82
2023/04/17 04:43:18;;;;;;;4.80;3.70;;;11.20;99.90;;;;;;5008941;28;20057;-82
2023/04/17 04:45:48;;;;;;;5.45;4.28;;;11.10;99.90;;;;;;5007533;28;20124;-81
2023/04/17 04:48:14;;;;;;;4.75;3.90;;;11.10;99.90;;;;;;5023252;28;20095;-82
2023/04/17 04:50:41;;;;;;;4.22;3.78;;;11.10;99.90;;;;;;5007509;28;20194;-82
2023/04/17 04:53:08;;;;;;;4.20;3.33;;;11.10;99.90;;;;;;5006049;28;20054;-81
2023/04/17 04:55:35;;;;;;;3.45;3.13;;;11.10;99.90;;;;;;5024028;28;20066;-80
2023/04/17 04:58:02;;;;;;;4.63;3.63;;;11.10;99.90;;;;;;5019047;28;20072;-82
2023/04/17 05:00:29;;;;;;;3.22;2.65;;;11.10;99.90;;;;;;5003579;28;20061;-81
2023/04/17 05:02:55;;;;;;;5.18;3.53;;;11.10;99.90;;;;;;5002851;28;20052;-81
2023/04/17 05:05:24;;;;;;;4.18;3.60;;;11.10;99.90;;;;;;4995307;28;20041;-81
2023/04/17 05:07:53;;;;;;;4.22;3.40;;;11.00;99.90;;;;;;5018863;28;20112;-81
2023/04/17 05:10:20;;;;;;;3.58;3.10;;;11.00;99.90;;;;;;5018257;28;20444;-82
2023/04/17 05:12:47;;;;;;;4.07;3.67;;;11.00;99.90;;;;;;5001870;28;20095;-82
2023/04/17 05:15:14;;;;;;;3.60;2.65;;;11.00;99.90;;;;;;5001787;28;20049;-83
2023/04/17 05:17:41;;;;;;;4.03;3.10;;;11.00;99.90;;;;;;5003921;28;20049;-81
2023/04/17 05:20:08;;;;;;;3.13;2.83;;;11.10;99.90;;;;;;5001417;28;20148;-82
2023/04/17 05:22:35;;;;;;;5.00;3.63;;;11.10;99.90;;;;;;4997223;28;20144;-81
2023/04/17 05:25:02;;;;;;;3.58;3.10;;;11.10;99.90;;;;;;5013104;28;20058;-82
2023/04/17 05:27:29;;;;;;;3.72;3.22;;;11.10;99.90;;;;;;5001440;28;20576;-81
2023/04/17 05:29:56;;;;;;;3.80;3.15;;;11.00;99.90;;;;;;5015645;28;20707;-82
2023/04/17 05:32:22;;;;;;;3.55;2.75;;;11.00;99.90;;;;;;5011821;28;20049;-82
2023/04/17 05:34:49;;;;;;;3.97;3.42;;;11.00;99.90;;;;;;5015730;28;20085;-82
2023/04/17 05:37:16;;;;;;;3.60;3.13;;;11.00;99.90;;;;;;5012687;28;20065;-83
2023/04/17 05:39:43;;;;;;;3.75;3.13;;;11.00;99.90;;;;;;5012911;28;20536;-83
2023/04/17 05:42:10;;;;;;;3.88;3.38;;;11.00;99.90;;;;;;4998080;28;20633;-83
2023/04/17 05:44:38;;;;;;;3.92;3.53;;;11.10;99.90;;;;;;4983784;28;20131;-83
2023/04/17 05:47:05;;;;;;;4.43;3.63;;;11.10;99.90;;;;;;5011842;28;20061;-82
2023/04/17 05:49:31;;;;;;;3.85;3.42;;;11.10;99.90;;;;;;4981208;28;20140;-82
2023/04/17 05:51:58;;;;;;;4.32;3.90;;;11.10;99.90;;;;;;5014429;28;20133;-82
2023/04/17 05:54:27;;;;;;;3.78;3.38;;;11.10;99.90;;;;;;5015007;28;20081;-82
2023/04/17 05:56:55;;;;;;;4.80;3.58;;;11.10;99.90;;;;;;4998950;28;20107;-81
2023/04/17 05:59:22;;;;;;;4.90;3.63;;;11.20;99.90;;;;;;4998544;28;20053;-80
2023/04/17 06:01:49;;;;;;;4.15;3.75;;;11.20;99.90;;;;;;5014184;28;20387;-82
2023/04/17 06:04:16;;;;;;;4.45;3.70;;;11.30;99.90;;;;;;5012681;28;20646;-82
2023/04/17 06:06:44;;;;;;;5.55;4.50;;;11.30;99.90;;;;;;5014742;28;20069;-83
2023/04/17 06:09:11;;;;;;;5.03;4.53;;;11.30;99.90;;;;;;5015815;28;20049;-83
2023/04/17 06:11:38;;;;;;;4.72;4.22;;;11.30;99.90;;;;;;5002084;28;20052;-87
2023/04/17 06:14:05;;;;;;;4.95;4.45;;;11.40;99.90;;;;;;5021483;28;20144;-87
2023/04/17 06:16:32;;;;;;;6.18;5.30;;;11.40;99.90;;;;;;5021682;28;20077;-86
2023/04/17 06:18:59;;;;;;;6.43;5.38;;;11.40;99.90;;;;;;5005901;28;20057;-86
2023/04/17 06:21:26;;;;;;;5.20;4.50;;;11.50;99.90;;;;;;5023015;28;20085;-87
2023/04/17 06:23:53;;;;;;;5.43;4.68;;;11.60;99.90;;;;;;5006105;28;20077;-86
2023/04/17 06:26:20;;;;;;;5.72;5.07;;;11.70;99.90;;;;;;5006611;28;20172;-85
2023/04/17 06:28:47;;;;;;;5.35;4.82;;;11.80;99.90;;;;;;5006539;28;20132;-86
2023/04/17 06:31:14;;;;;;;7.40;6.40;;;11.80;99.90;;;;;;5006906;28;20474;-86
2023/04/17 06:33:42;;;;;;;6.53;5.85;;;11.80;99.90;;;;;;5003514;28;20434;-86
2023/04/17 06:36:09;;;;;;;6.60;5.63;;;11.70;99.90;;;;;;4989608;28;20050;-87
2023/04/17 06:38:36;;;;;;;6.43;5.82;;;11.70;99.90;;;;;;5007646;28;20053;-86
2023/04/17 06:41:03;;;;;;;5.85;5.05;;;11.60;99.90;;;;;;5007672;28;20049;-85
2023/04/17 06:43:30;;;;;;;5.78;5.13;;;11.60;99.90;;;;;;5003525;28;20049;-86
2023/04/17 06:45:57;;;;;;;7.30;6.18;;;11.60;99.90;;;;;;4987120;28;20045;-87
2023/04/17 06:48:24;;;;;;;6.85;6.10;;;11.60;99.90;;;;;;4986613;28;20670;-86
2023/04/17 06:50:51;;;;;;;8.63;7.75;;;11.50;99.90;;;;;;4987264;28;20050;-85
2023/04/17 06:53:18;;;;;;;7.60;6.80;;;11.40;99.90;;;;;;5009705;28;20054;-86
2023/04/17 06:55:45;;;;;;;8.70;7.85;;;11.40;99.90;;;;;;4986216;28;20093;-86
2023/04/17 06:58:12;;;;;;;11.85;9.63;;;11.30;99.90;;;;;;5005251;28;20053;-86
2023/04/17 07:00:39;;;;;;;9.35;8.40;;;11.30;99.90;;;;;;5006318;28;20077;-86
2023/04/17 07:03:06;;;;;;;7.00;6.30;;;11.30;99.90;;;;;;5003315;28;20080;-86
2023/04/17 07:05:34;;;;;;;8.15;7.35;;;11.40;99.90;;;;;;4987942;28;20073;-86
2023/04/17 07:08:00;;;;;;;8.50;7.10;;;11.50;99.90;;;;;;4987536;28;20054;-87
2023/04/17 07:10:28;;;;;;;9.10;8.20;;;11.50;99.90;;;;;;4987026;28;20057;-86
2023/04/17 07:12:55;;;;;;;7.72;6.53;;;11.60;99.90;;;;;;4990973;28;20186;-86
2023/04/17 07:15:22;;;;;;;8.30;7.30;;;11.70;99.90;;;;;;4989987;28;20053;-85
2023/04/17 07:17:49;;;;;;;8.80;7.85;;;11.80;99.90;;;;;;4989482;28;20061;-85
2023/04/17 07:20:16;;;;;;;7.45;6.43;;;11.90;99.90;;;;;;5005377;28;20156;-86
2023/04/17 07:22:43;;;;;;;8.57;7.72;;;12.10;99.90;;;;;;5003429;28;20050;-86
2023/04/17 07:25:10;;;;;;;8.50;7.65;;;12.10;99.90;;;;;;5003848;28;20137;-87
2023/04/17 07:27:38;;;;;;;8.18;7.38;;;12.20;99.90;;;;;;5002078;28;20173;-85
2023/04/17 07:30:06;;;;;;;9.00;8.00;;;12.10;99.90;;;;;;4985559;28;20129;-86
2023/04/17 07:32:34;;;;;;;7.97;7.10;;;12.10;99.90;;;;;;4989176;28;20110;-86
2023/04/17 07:35:01;;;;;;;7.80;6.25;;;12.00;99.90;;;;;;5005596;28;20188;-86
2023/04/17 07:37:28;;;;;;;8.25;7.45;;;11.90;99.90;;;;;;5004849;28;20057;-85
2023/04/17 07:39:58;;;;;;;8.85;7.95;;;11.90;99.90;;;;;;5004341;28;20045;-86
2023/04/17 07:42:25;;;;;;;7.70;6.90;;;11.80;99.90;;;;;;5005078;28;20057;-86
2023/04/17 07:44:52;;;;;;;8.60;7.80;;;11.90;99.90;;;;;;5005166;28;20139;-86
2023/04/17 07:47:19;;;;;;;8.40;6.95;;;11.90;99.90;;;;;;5004181;28;20050;-86
2023/04/17 07:49:47;;;;;;;6.18;5.40;;;11.90;99.90;;;;;;5003140;28;20057;-85
2023/04/17 07:52:16;;;;;;;4.78;4.10;;;12.10;99.90;;;;;;5004277;28;20147;-85
2023/04/17 07:54:43;;;;;;;4.10;3.28;;;12.40;99.90;;;;;;5003155;28;20119;-83
2023/04/17 07:57:10;;;;;;;3.70;3.03;;;12.60;99.90;;;;;;5004185;28;20474;-85
2023/04/17 07:59:37;;;;;;;3.70;2.60;;;12.80;99.90;;;;;;5007420;28;20045;-86
2023/04/17 08:02:04;;;;;;;2.50;2.00;;;13.00;99.90;;;;;;5009392;28;20060;-86
2023/04/17 08:04:32;;;;;;;2.92;2.03;;;13.10;99.90;;;;;;5009180;28;20076;-86
2023/04/17 08:06:59;;;;;;;3.30;2.40;;;13.20;99.90;;;;;;5009186;28;20057;-87
2023/04/17 08:09:27;;;;;;;3.30;2.88;;;13.20;99.90;;;;;;5002846;28;20049;-86
2023/04/17 08:11:56;;;;;;;4.50;3.25;;;13.10;99.90;;;;;;4989422;28;20287;-87
2023/04/17 08:14:24;;;;;;;4.60;2.97;;;13.00;99.90;;;;;;5012313;28;20609;-86
2023/04/17 08:16:51;;;;;;;4.35;2.58;;;13.00;99.90;;;;;;5005425;28;20053;-87
2023/04/17 08:19:18;;;;;;;3.67;3.00;;;13.20;99.90;;;;;;5000671;28;20045;-86
2023/04/17 08:21:49;;;;;;;2.38;1.92;;;13.40;99.90;;;;;;5022900;28;20107;-86
2023/04/17 08:24:16;;;;;;;2.78;1.90;;;13.60;99.90;;;;;;5007366;28;20121;-85
2023/04/17 08:26:46;;;;;;;4.18;2.30;;;13.80;99.90;;;;;;5007778;28;20501;-87
2023/04/17 08:29:13;;;;;;;2.97;1.75;;;13.80;99.90;;;;;;5006344;28;20053;-87
2023/04/17 08:31:41;;;;;;;4.57;2.63;;;13.80;99.90;;;;;;5019900;28;20053;-86
2023/04/17 08:34:08;;;;;;;2.90;2.33;;;13.70;99.90;;;;;;5001936;28;20045;-85
2023/04/17 08:36:40;;;;;;;3.00;1.90;;;13.60;99.90;;;;;;5006311;28;20114;-86
2023/04/17 08:39:08;;;;;;;3.30;1.60;;;13.70;99.90;;;;;;5002590;28;20304;-86
2023/04/17 08:41:43;;;;;;;3.72;2.22;;;13.80;99.90;;;;;;5006499;28;20061;-88
2023/04/17 08:44:11;;;;;;;3.03;2.22;;;13.80;99.90;;;;;;5009713;28;20486;-88
2023/04/17 08:46:38;;;;;;;2.83;2.25;;;13.70;99.90;;;;;;5009358;28;20127;-87
2023/04/17 08:49:05;;;;;;;2.85;2.05;;;13.70;99.90;;;;;;5025374;28;20080;-87
2023/04/17 08:51:32;;;;;;;2.75;2.03;;;13.70;99.90;;;;;;5010314;28;20075;-86
2023/04/17 08:53:59;;;;;;;3.70;2.20;;;13.80;99.90;;;;;;5009898;28;20057;-87
2023/04/17 08:56:27;;;;;;;3.17;2.22;;;13.80;99.90;;;;;;5009418;28;20065;-87
2023/04/17 08:58:54;;;;;;;2.15;1.52;;;13.80;99.90;;;;;;5010670;28;20083;-87
2023/04/17 09:01:21;;;;;;;3.20;2.08;;;14.00;99.90;;;;;;5010282;28;20155;-89
2023/04/17 09:03:50;;;;;;;4.85;2.20;;;14.20;99.90;;;;;;5007696;28;20054;-88
2023/04/17 09:06:18;;;;;;;5.45;2.88;;;14.30;99.90;;;;;;4993078;28;20054;-87
2023/04/17 09:08:56;;;;;;;4.43;2.13;;;14.40;99.90;;;;;;5010295;28;20049;-86
2023/04/17 09:11:24;;;;;;;3.58;2.60;;;14.60;99.90;;;;;;5025404;28;20083;-88
2023/04/17 09:13:51;;;;;;;3.58;2.17;;;14.70;99.90;;;;;;5010426;28;20077;-87
2023/04/17 09:16:23;;;;;;;2.40;1.95;;;14.80;99.90;;;;;;5012928;28;20455;-88
2023/04/17 09:18:50;;;;;;;2.40;1.57;;;14.90;99.90;;;;;;5012608;28;20088;-88
2023/04/17 09:21:17;;;;;;;2.08;1.60;;;15.10;99.90;;;;;;5010196;28;20505;-87
2023/04/17 09:23:49;;;;;;;3.35;2.22;;;15.20;99.90;;;;;;5010304;28;20255;-87
2023/04/17 09:26:18;;;;;;;2.53;1.67;;;15.10;99.90;;;;;;5010138;28;20065;-88
2023/04/17 09:29:06;;;;;;;3.20;2.13;;;15.30;99.90;;;;;;5010511;28;20650;-88
2023/04/17 09:31:33;;;;;;;2.72;1.80;;;15.20;99.90;;;;;;5026264;28;20151;-88
2023/04/17 09:34:04;;;;;;;2.90;2.40;;;15.00;99.90;;;;;;5009995;28;20413;-87
2023/04/17 09:36:32;;;;;;;4.75;2.85;;;14.80;99.90;;;;;;5009834;28;20057;-86
2023/04/17 09:39:01;;;;;;;3.08;2.67;;;14.70;99.90;;;;;;5008635;28;20132;-86
2023/04/17 09:41:30;;;;;;;3.05;2.20;;;14.60;99.90;;;;;;5008391;28;20050;-86
2023/04/17 09:44:04;;;;;;;4.45;2.65;;;14.70;99.90;;;;;;5008715;28;20049;-87
2023/04/17 09:46:32;;;;;;;4.30;2.22;;;14.60;99.90;;;;;;5010201;28;20476;-88
2023/04/17 09:49:06;;;;;;;3.00;1.98;;;14.70;99.90;;;;;;5025965;28;20051;-86
2023/04/17 09:51:33;;;;;;;2.95;2.25;;;14.60;99.90;;;;;;5009893;28;20135;-88
2023/04/17 09:54:04;;;;;;;2.80;2.33;;;14.60;99.90;;;;;;5008902;28;20053;-88
2023/04/17 09:56:35;;;;;;;3.72;2.20;;;14.70;99.90;;;;;;5010254;28;20091;-88
2023/04/17 09:59:03;;;;;;;2.40;1.65;;;14.70;99.90;;;;;;5011662;28;20064;-88
2023/04/17 10:01:31;;;;;;;1.80;1.33;;;14.70;99.90;;;;;;5011666;28;20053;-87
2023/04/17 10:03:59;;;;;;;2.88;1.77;;;14.70;99.90;;;;;;5008072;28;20041;-88
2023/04/17 10:06:26;;;;;;;3.03;1.90;;;14.80;99.90;;;;;;4994368;28;20058;-88
2023/04/17 10:08:55;;;;;;;2.25;1.65;;;14.70;99.90;;;;;;5011102;28;20057;-86
2023/04/17 10:11:23;;;;;;;2.47;1.45;;;14.70;99.90;;;;;;5010626;28;20060;-87
2023/04/17 10:14:20;;;;;;;2.42;1.75;;;14.70;99.90;;;;;;5004510;28;20134;-87
2023/04/17 10:16:47;;;;;;;2.50;1.75;;;14.80;99.90;;;;;;5004645;28;20425;-87
2023/04/17 10:19:35;;;;;;;2.30;1.42;;;14.80;99.90;;;;;;4990892;28;20144;-87
2023/04/17 10:22:17;;;;;;;2.13;1.25;;;14.80;99.90;;;;;;4991736;28;20208;-87
2023/04/17 10:24:50;;;;;;;2.05;1.20;;;14.80;99.90;;;;;;5020635;28;20131;-85
2023/04/17 10:27:23;;;;;;;1.60;1.02;;;14.90;99.90;;;;;;4998415;28;20067;-88
2023/04/17 10:30:03;;;;;;;2.17;1.50;;;15.00;99.90;;;;;;5025273;28;20150;-88
2023/04/17 10:32:30;;;;;;;2.75;1.55;;;15.10;99.90;;;;;;5009613;28;20046;-88
2023/04/17 10:35:03;;;;;;;1.70;1.30;;;15.10;99.90;;;;;;5007330;28;20085;-88
2023/04/17 10:37:51;;;;;;;1.45;1.00;;;15.10;99.90;;;;;;5007789;28;20065;-88
2023/04/17 10:40:21;;;;;;;3.65;1.55;;;15.20;99.90;;;;;;5025490;28;20056;-86
2023/04/17 10:43:21;;;;;;;3.13;1.52;;;15.20;99.90;;;;;;5026870;28;20148;-87
2023/04/17 10:46:00;;;;;;;3.08;1.60;;;15.30;99.90;;;;;;5026485;28;20057;-87
2023/04/17 10:48:39;;;;;;;1.63;1.27;;;15.40;99.90;;;;;;5023283;28;20551;-87
2023/04/17 10:51:27;;;;;;;1.88;1.15;;;15.40;99.90;;;;;;4991252;28;20115;-87
2023/04/17 10:54:01;;;;;;;2.10;1.27;;;15.60;99.90;;;;;;5014430;28;20054;-87
2023/04/17 10:56:39;;;;;;;2.65;1.52;;;15.60;99.90;;;;;;4992796;28;20149;-87
2023/04/17 10:59:10;;;;;;;4.55;1.45;;;15.70;99.90;;;;;;5010285;28;20084;-87
2023/04/17 11:01:47;;;;;;;2.37;1.60;;;15.80;99.90;;;;;;5009717;28;20373;-87
2023/04/17 11:04:24;;;;;;;2.75;1.58;;;15.90;99.90;;;;;;5004409;28;20160;-87
2023/04/17 11:06:52;;;;;;;1.30;1.13;;;16.00;99.90;;;;;;4991083;28;20100;-87
2023/04/17 11:09:20;;;;;;;2.22;1.30;;;16.10;99.90;;;;;;4987829;28;20065;-87
2023/04/17 11:11:47;;;;;;;2.05;1.30;;;16.20;99.90;;;;;;4986306;28;20279;-86
2023/04/17 11:14:16;;;;;;;3.35;1.75;;;16.40;99.90;;;;;;4999529;28;20056;-85
2023/04/17 11:16:45;;;;;;;3.45;1.70;;;16.40;99.90;;;;;;5005529;28;20394;-86
2023/04/17 11:19:22;;;;;;;3.58;1.95;;;16.40;99.90;;;;;;4991076;28;20053;-88
2023/04/17 11:21:51;;;;;;;1.75;1.30;;;16.30;99.90;;;;;;5019808;28;20065;-86
2023/04/17 11:24:22;;;;;;;3.22;2.00;;;16.40;99.90;;;;;;5000076;28;20129;-83
2023/04/17 11:26:49;;;;;;;4.68;2.55;;;16.60;99.90;;;;;;4998235;28;20089;-86
2023/04/17 11:29:18;;;;;;;4.05;2.47;;;16.70;99.90;;;;;;4996064;28;20314;-86
2023/04/17 11:31:45;;;;;;;2.92;2.28;;;16.80;99.90;;;;;;4991205;28;20061;-86
2023/04/17 11:34:13;;;;;;;2.72;2.22;;;17.10;99.90;;;;;;5019822;28;20053;-85
2023/04/17 11:36:47;;;;;;;3.35;1.88;;;17.10;99.90;;;;;;5003699;28;20052;-85
2023/04/17 11:39:14;;;;;;;1.98;1.40;;;17.10;99.90;;;;;;5020183;28;20136;-85
2023/04/17 11:41:41;;;;;;;2.22;1.38;;;17.20;99.90;;;;;;5004418;28;20563;-85
2023/04/17 11:44:09;;;;;;;3.42;1.73;;;17.40;99.90;;;;;;5004160;28;20551;-86
2023/04/17 11:46:36;;;;;;;1.77;1.40;;;17.50;99.90;;;;;;5006197;28;20057;-86
2023/04/17 11:49:06;;;;;;;2.25;1.48;;;17.50;99.90;;;;;;5004627;28;20258;-88
2023/04/17 11:51:33;;;;;;;2.65;1.50;;;17.50;99.90;;;;;;5010464;28;20081;-87
2023/04/17 11:54:00;;;;;;;2.70;1.60;;;17.60;99.90;;;;;;4997982;28;20077;-85
2023/04/17 11:56:28;;;;;;;2.13;1.52;;;17.60;99.90;;;;;;5001628;28;20140;-86
2023/04/17 11:58:56;;;;;;;2.72;1.83;;;17.70;99.90;;;;;;5005509;28;20041;-86
2023/04/17 12:01:24;;;;;;;2.25;1.90;;;17.70;99.90;;;;;;5000190;28;20085;-85
2023/04/17 12:03:55;;;;;;;3.40;1.92;;;18.00;99.90;;;;;;4997083;28;20627;-86
2023/04/17 12:06:26;;;;;;;2.90;1.98;;;18.20;99.90;;;;;;5001511;28;20061;-85
2023/04/17 12:08:54;;;;;;;2.55;1.75;;;18.40;99.90;;;;;;5001838;28;20050;-86
2023/04/17 12:11:30;;;;;;;2.53;1.67;;;18.60;99.90;;;;;;5003438;28;20053;-86
2023/04/17 12:13:57;;;;;;;1.63;1.48;;;18.60;99.90;;;;;;5018522;28;20077;-86
2023/04/17 12:16:24;;;;;;;2.35;1.83;;;18.80;99.90;;;;;;5001876;28;20141;-86
2023/04/17 12:18:52;;;;;;;2.72;1.80;;;18.70;99.90;;;;;;5010201;28;20053;-86
2023/04/17 12:21:19;;;;;;;3.20;2.15;;;18.80;99.90;;;;;;5024218;28;20139;-87
2023/04/17 12:23:47;;;;;;;1.83;1.60;;;18.80;99.90;;;;;;5013694;28;20237;-86
2023/04/17 12:26:14;;;;;;;2.65;2.03;;;19.10;99.90;;;;;;5002299;28;20084;-86
2023/04/17 12:28:41;;;;;;;3.20;1.95;;;19.00;99.90;;;;;;5000019;28;20700;-86
2023/04/17 12:31:08;;;;;;;4.30;2.78;;;19.10;99.90;;;;;;5000051;28;20050;-87
2023/04/17 12:33:35;;;;;;;2.95;1.92;;;19.20;99.90;;;;;;5003648;28;20049;-86
2023/04/17 12:36:03;;;;;;;2.53;1.77;;;19.50;99.90;;;;;;5004250;28;20111;-86
2023/04/17 12:38:31;;;;;;;2.20;1.75;;;19.70;99.90;;;;;;5001064;28;20041;-86
2023/04/17 12:40:58;;;;;;;2.88;1.95;;;19.70;99.90;;;;;;5000235;28;20054;-87
2023/04/17 12:43:25;;;;;;;2.38;1.58;;;19.90;99.90;;;;;;5013232;28;20057;-87
2023/04/17 12:45:52;;;;;;;1.95;1.58;;;19.90;99.40;;;;;;5000706;28;20561;-87
2023/04/17 12:48:19;;;;;;;2.20;1.88;;;20.10;99.50;;;;;;4993602;28;20436;-86
2023/04/17 12:50:46;;;;;;;2.13;1.40;;;20.20;99.50;;;;;;5008177;28;20053;-87
2023/04/17 12:53:14;;;;;;;1.92;1.35;;;20.40;99.00;;;;;;5007501;28;20050;-86